createdAt,value
2019-04-26T00:02:46.460Z,99934.00
2019-04-26T00:05:50.364Z,99933.05
2019-04-26T00:09:00.438Z,99948.63
2019-04-26T00:12:23.108Z,99963.16
2019-04-26T00:15:43.365Z,99966.11
2019-04-26T00:18:47.652Z,99959.23
2019-04-26T00:21:51.984Z,99957.96
2019-04-26T00:24:56.227Z,99947.28
2019-04-26T00:28:00.393Z,99934.92
2019-04-26T00:31:04.341Z,99929.19
2019-04-26T00:34:08.347Z,99934.82
2019-04-26T00:37:13.047Z,99918.91
2019-04-26T00:40:18.482Z,99921.33
2019-04-26T00:43:23.749Z,99927.17
2019-04-26T00:46:30.029Z,99937.96
2019-04-26T00:49:43.491Z,99960.66
2019-04-26T00:52:43.412Z,99970.14
2019-04-26T00:55:48.794Z,99975.30
2019-04-26T00:58:53.257Z,99983.36
2019-04-26T01:02:03.211Z,99993.16
2019-04-26T01:05:07.323Z,99983.22
2019-04-26T01:08:11.245Z,99981.98
2019-04-26T01:11:16.633Z,99986.02
2019-04-26T01:14:24.631Z,100000.32
2019-04-26T01:17:28.740Z,100013.53
2019-04-26T01:20:35.185Z,100012.03
2019-04-26T01:23:41.467Z,100018.20
2019-04-26T01:26:48.311Z,100015.89
2019-04-26T01:29:55.491Z,100019.34
2019-04-26T01:33:01.086Z,100026.09
2019-04-26T01:36:12.840Z,100026.09
2019-04-26T01:39:16.937Z,100024.83
2019-04-26T01:42:46.956Z,100021.67
2019-04-26T01:45:59.456Z,100020.41
2019-04-26T01:49:07.721Z,100009.97
2019-04-26T01:52:13.651Z,100006.09
2019-04-26T01:55:21.467Z,100015.67
2019-04-26T01:58:27.211Z,100036.09
2019-04-26T02:01:49.542Z,100049.47
2019-04-26T02:04:56.299Z,100045.39
2019-04-26T02:08:00.436Z,100045.13
2019-04-26T02:11:04.500Z,100047.42
2019-04-26T02:14:08.987Z,100039.23
2019-04-26T02:17:13.004Z,100047.98
2019-04-26T02:21:26.269Z,100057.98
2019-04-26T02:24:43.637Z,100054.55
2019-04-26T02:27:47.707Z,100045.22
2019-04-26T02:30:53.155Z,100056.33
2019-04-26T02:33:58.449Z,100069.84
2019-04-26T02:37:04.922Z,100066.70
2019-04-26T02:40:13.575Z,100047.26
2019-04-26T02:43:20.830Z,100043.84
2019-04-26T02:46:36.526Z,100048.41
2019-04-26T02:49:46.389Z,100038.85
2019-04-26T02:53:00.190Z,100052.45
2019-04-26T02:56:28.211Z,100043.03
2019-04-26T02:59:44.135Z,100044.37
2019-04-26T03:02:54.181Z,100044.65
2019-04-26T03:05:58.968Z,100042.31
2019-04-26T03:09:06.742Z,100029.27
2019-04-26T03:12:14.952Z,100029.12
2019-04-26T03:15:44.136Z,100039.47
2019-04-26T03:19:01.072Z,100035.80
2019-04-26T03:22:17.934Z,100035.12
2019-04-26T03:25:48.318Z,100048.65
2019-04-26T03:29:16.632Z,100054.99
2019-04-26T03:32:57.156Z,100056.31
2019-04-26T03:36:24.024Z,100062.36
2019-04-26T03:39:45.184Z,100049.57
2019-04-26T03:43:07.610Z,100043.89
2019-04-26T03:46:30.121Z,100056.02
2019-04-26T03:49:55.388Z,100048.39
2019-04-26T03:53:28.998Z,100053.73
2019-04-26T03:57:13.741Z,100041.91
2019-04-26T04:00:41.479Z,100040.02
2019-04-26T04:04:20.444Z,100042.26
2019-04-26T04:07:36.753Z,100042.36
2019-04-26T04:10:41.974Z,100050.37
2019-04-26T04:13:56.798Z,100065.81
2019-04-26T04:17:31.686Z,100068.98
2019-04-26T04:21:40.671Z,100071.08
2019-04-26T04:24:52.613Z,100084.02
2019-04-26T04:28:04.981Z,100079.26
2019-04-26T04:31:27.315Z,100088.95
2019-04-26T04:34:41.586Z,100092.13
2019-04-26T04:38:08.513Z,100111.69
2019-04-26T04:41:13.609Z,100125.09
2019-04-26T04:44:30.936Z,100121.49
2019-04-26T04:47:54.267Z,100120.12
2019-04-26T04:51:09.017Z,100118.45
2019-04-26T04:54:20.995Z,100110.63
2019-04-26T04:57:58.050Z,100111.28
2019-04-26T05:01:50.417Z,100118.08
2019-04-26T05:05:30.009Z,100134.39
2019-04-26T05:08:45.530Z,100148.87
2019-04-26T05:12:11.211Z,100168.03
2019-04-26T05:15:46.357Z,100173.67
2019-04-26T05:19:30.855Z,100187.73
2019-04-26T05:23:12.778Z,100201.60
2019-04-26T05:27:19.452Z,100229.25
2019-04-26T05:31:14.221Z,100230.97
2019-04-26T05:34:35.627Z,100205.88
2019-04-26T05:38:02.405Z,100206.78
2019-04-26T05:41:27.564Z,100212.05
2019-04-26T05:45:16.327Z,100205.66
2019-04-26T05:48:52.279Z,100216.89
2019-04-26T05:52:40.663Z,100224.86
2019-04-26T05:56:34.160Z,100229.77
2019-04-26T05:59:58.931Z,100230.12
2019-04-26T06:03:33.163Z,100223.35
2019-04-26T06:07:01.333Z,100223.78
2019-04-26T06:10:32.587Z,100231.59
2019-04-26T06:14:14.760Z,100249.16
2019-04-26T06:17:51.639Z,100252.30
2019-04-26T06:21:05.493Z,100255.14
2019-04-26T06:24:52.675Z,100266.42
2019-04-26T06:28:10.769Z,100261.55
2019-04-26T06:31:42.079Z,100263.09
2019-04-26T06:35:10.655Z,100264.55
2019-04-26T06:38:51.542Z,100284.59
2019-04-26T06:42:36.485Z,100287.33
2019-04-26T06:46:22.993Z,100282.84
2019-04-26T06:50:12.422Z,100270.92
2019-04-26T06:53:41.165Z,100270.34
2019-04-26T06:57:37.786Z,100272.25
2019-04-26T07:01:08.751Z,100266.59
2019-04-26T07:04:45.589Z,100288.54
2019-04-26T07:08:40.998Z,100283.80
2019-04-26T07:12:34.802Z,100279.52
2019-04-26T07:16:17.770Z,100272.30
2019-04-26T07:19:25.035Z,100277.16
2019-04-26T07:22:56.539Z,100270.59
2019-04-26T07:26:40.743Z,100267.87
2019-04-26T07:30:27.858Z,100283.75
2019-04-26T07:33:48.155Z,100294.82
2019-04-26T07:37:48.219Z,100304.84
2019-04-26T07:41:51.328Z,100311.17
2019-04-26T07:45:24.660Z,100310.35
2019-04-26T07:48:53.862Z,100314.49
2019-04-26T07:52:32.447Z,100313.22
2019-04-26T07:55:49.023Z,100315.67
2019-04-26T07:59:31.342Z,100330.61
2019-04-26T08:03:01.185Z,100330.70
2019-04-26T08:06:17.892Z,100335.47
2019-04-26T08:09:27.601Z,100338.47
2019-04-26T08:12:34.650Z,100342.70
2019-04-26T08:15:55.213Z,100345.39
2019-04-26T08:19:05.706Z,100352.30
2019-04-26T08:22:20.330Z,100351.72
2019-04-26T08:25:20.710Z,100350.34
2019-04-26T08:28:27.978Z,100356.36
2019-04-26T08:31:34.154Z,100356.77
2019-04-26T08:34:41.085Z,100372.92
2019-04-26T08:37:53.043Z,100378.83
2019-04-26T08:41:00.526Z,100374.16
2019-04-26T08:44:34.547Z,100370.88
2019-04-26T08:47:55.548Z,100374.59
2019-04-26T08:51:02.120Z,100378.95
2019-04-26T08:54:11.324Z,100383.65
2019-04-26T08:57:16.945Z,100371.09
2019-04-26T09:00:39.451Z,100366.89
2019-04-26T09:04:08.984Z,100372.45
2019-04-26T09:07:18.814Z,100383.20
2019-04-26T09:10:26.119Z,100384.08
2019-04-26T09:13:34.266Z,100380.02
2019-04-26T09:16:49.860Z,100378.73
2019-04-26T09:19:44.744Z,100365.87
2019-04-26T09:23:03.836Z,100379.94
2019-04-26T09:26:08.526Z,100388.63
2019-04-26T09:29:33.556Z,100390.67
2019-04-26T09:32:44.970Z,100398.64
2019-04-26T09:35:48.956Z,100415.47
2019-04-26T09:38:52.826Z,100422.52
2019-04-26T09:42:01.157Z,100434.72
2019-04-26T09:45:27.053Z,100434.15
2019-04-26T09:48:38.086Z,100437.53
2019-04-26T09:51:42.222Z,100434.89
2019-04-26T09:54:46.119Z,100437.07
2019-04-26T09:57:53.432Z,100432.56
2019-04-26T10:00:55.843Z,100423.31
2019-04-26T10:03:59.985Z,100420.75
2019-04-26T10:07:04.200Z,100421.95
2019-04-26T10:10:22.124Z,100426.50
2019-04-26T10:13:26.374Z,100421.90
2019-04-26T10:16:55.454Z,100407.38
2019-04-26T10:19:59.800Z,100399.18
2019-04-26T10:23:04.626Z,100388.16
2019-04-26T10:26:08.971Z,100393.81
2019-04-26T10:29:13.199Z,100409.02
2019-04-26T10:32:17.282Z,100409.31
2019-04-26T10:35:21.786Z,100415.08
2019-04-26T10:38:27.107Z,100415.94
2019-04-26T10:41:31.322Z,100419.92
2019-04-26T10:44:35.721Z,100414.73
2019-04-26T10:47:40.926Z,100421.33
2019-04-26T10:50:44.799Z,100413.39
2019-04-26T10:53:54.782Z,100419.10
2019-04-26T10:57:03.520Z,100412.69
2019-04-26T11:00:17.819Z,100412.71
2019-04-26T11:03:19.996Z,100407.74
2019-04-26T11:06:27.634Z,100411.52
2019-04-26T11:09:29.931Z,100423.22
2019-04-26T11:12:33.840Z,100415.99
2019-04-26T11:15:38.046Z,100414.98
2019-04-26T11:18:42.293Z,100420.73
2019-04-26T11:21:46.277Z,100411.05
2019-04-26T11:24:53.917Z,100401.84
2019-04-26T11:27:56.394Z,100406.53
2019-04-26T11:31:00.547Z,100413.09
2019-04-26T11:34:05.843Z,100415.89
2019-04-26T11:37:13.446Z,100419.23
2019-04-26T11:40:16.146Z,100425.23
2019-04-26T11:43:21.116Z,100431.05
2019-04-26T11:46:29.070Z,100430.89
2019-04-26T11:49:31.521Z,100437.77
2019-04-26T11:52:37.227Z,100432.70
2019-04-26T11:55:41.369Z,100435.91
2019-04-26T11:58:45.260Z,100433.98
2019-04-26T12:01:49.120Z,100432.93
2019-04-26T12:05:11.001Z,100445.23
2019-04-26T12:08:17.180Z,100441.16
2019-04-26T12:11:30.336Z,100448.61
2019-04-26T12:14:29.490Z,100450.31
2019-04-26T12:17:35.216Z,100449.16
2019-04-26T12:20:38.850Z,100446.20
2019-04-26T12:23:43.173Z,100445.62
2019-04-26T12:26:46.983Z,100444.27
2019-04-26T12:29:51.205Z,100439.25
2019-04-26T12:32:55.303Z,100432.40
2019-04-26T12:35:59.532Z,100438.30
2019-04-26T12:39:04.661Z,100438.48
2019-04-26T12:42:12.340Z,100441.91
2019-04-26T12:45:21.923Z,100445.97
2019-04-26T12:48:26.330Z,100443.84
2019-04-26T12:51:30.325Z,100433.56
2019-04-26T12:54:34.214Z,100433.52
2019-04-26T12:57:40.817Z,100436.82
2019-04-26T13:00:53.797Z,100439.45
2019-04-26T13:04:04.082Z,100443.06
2019-04-26T13:07:23.291Z,100452.42
2019-04-26T13:10:50.368Z,100461.98
2019-04-26T13:14:05.898Z,100461.29
2019-04-26T13:17:13.257Z,100469.03
2019-04-26T13:20:17.132Z,100459.61
2019-04-26T13:23:21.097Z,100452.70
2019-04-26T13:26:25.240Z,100470.39
2019-04-26T13:29:31.186Z,100469.68
2019-04-26T13:32:35.103Z,100473.20
2019-04-26T13:35:41.381Z,100470.29
2019-04-26T13:38:45.196Z,100476.14
2019-04-26T13:41:56.253Z,100479.50
2019-04-26T13:45:00.151Z,100482.61
2019-04-26T13:48:28.970Z,100476.09
2019-04-26T13:51:33.782Z,100479.81
2019-04-26T13:54:38.036Z,100475.37
2019-04-26T13:57:44.578Z,100473.93
2019-04-26T14:00:47.532Z,100482.48
2019-04-26T14:03:51.812Z,100489.03
2019-04-26T14:06:55.732Z,100498.81
2019-04-26T14:09:59.923Z,100492.45
2019-04-26T14:13:04.326Z,100500.40
2019-04-26T14:16:08.666Z,100504.85
2019-04-26T14:19:15.594Z,100496.39
2019-04-26T14:22:20.290Z,100491.88
2019-04-26T14:25:26.957Z,100485.34
2019-04-26T14:28:31.299Z,100482.96
2019-04-26T14:31:35.328Z,100479.45
2019-04-26T14:34:40.418Z,100476.95
2019-04-26T14:37:49.684Z,100485.66
2019-04-26T14:41:03.306Z,100489.23
2019-04-26T14:43:56.946Z,100497.97
2019-04-26T14:47:12.999Z,100494.87
2019-04-26T14:50:14.036Z,100505.00
2019-04-26T14:53:14.404Z,100500.61
2019-04-26T14:56:18.682Z,100493.66
2019-04-26T14:59:46.937Z,100497.41
2019-04-26T15:03:12.303Z,100493.19
2019-04-26T15:06:20.528Z,100493.68
2019-04-26T15:12:29.908Z,100490.17
2019-04-26T15:15:34.761Z,100477.73
2019-04-26T15:18:39.003Z,100479.39
2019-04-26T15:21:42.916Z,100486.16
2019-04-26T15:24:47.158Z,100486.58
2019-04-26T15:27:52.487Z,100488.97
2019-04-26T15:30:57.177Z,100487.53
2019-04-26T15:34:01.013Z,100488.30
2019-04-26T15:37:05.265Z,100481.54
2019-04-26T15:40:17.625Z,100479.19
2019-04-26T15:43:28.973Z,100471.95
2019-04-26T15:46:51.029Z,100466.93
2019-04-26T15:50:03.956Z,100463.02
2019-04-26T15:53:12.906Z,100471.82
2019-04-26T15:56:16.291Z,100474.11
2019-04-26T15:59:22.774Z,100478.43
2019-04-26T16:02:26.281Z,100476.77
2019-04-26T16:05:32.426Z,100485.44
2019-04-26T16:08:42.654Z,100487.56
2019-04-26T16:11:49.312Z,100497.28
2019-04-26T16:14:48.114Z,100499.21
2019-04-26T16:17:51.952Z,100501.28
2019-04-26T16:20:55.777Z,100501.80
2019-04-26T16:24:00.007Z,100511.13
2019-04-26T16:27:04.077Z,100504.63
2019-04-26T16:30:24.044Z,100503.45
2019-04-26T16:33:33.584Z,100504.83
2019-04-26T16:36:36.664Z,100506.09
2019-04-26T16:39:46.086Z,100500.66
2019-04-26T16:42:49.720Z,100492.92
2019-04-26T16:45:54.243Z,100495.10
2019-04-26T16:49:03.805Z,100503.25
2019-04-26T16:52:07.013Z,100500.75
2019-04-26T16:55:17.620Z,100500.88
2019-04-26T16:58:16.165Z,100503.73
2019-04-26T17:01:20.385Z,100493.65
2019-04-26T17:04:28.216Z,100508.34
2019-04-26T17:07:29.897Z,100506.48
2019-04-26T17:10:33.903Z,100505.51
2019-04-26T17:13:48.377Z,100511.18
2019-04-26T17:16:44.431Z,100514.77
2019-04-26T17:19:48.303Z,100510.66
2019-04-26T17:23:10.401Z,100509.92
2019-04-26T17:26:33.737Z,100509.41
2019-04-26T17:29:35.361Z,100512.32
2019-04-26T17:32:39.353Z,100518.00
2019-04-26T17:35:43.377Z,100517.55
2019-04-26T17:38:47.293Z,100505.95
2019-04-26T17:41:54.104Z,100506.36
2019-04-26T17:44:57.520Z,100507.63
2019-04-26T17:48:06.511Z,100506.50
2019-04-26T17:51:12.119Z,100510.53
2019-04-26T17:54:41.618Z,100501.46
2019-04-26T17:57:32.017Z,100506.64
2019-04-26T18:00:28.717Z,100503.25
2019-04-26T18:03:32.675Z,100503.86
2019-04-26T18:06:36.815Z,100509.02
2019-04-26T18:09:45.950Z,100505.77
2019-04-26T18:12:47.241Z,100513.58
2019-04-26T18:15:52.735Z,100520.92
2019-04-26T18:19:30.199Z,100518.33
2019-04-26T18:23:05.210Z,100523.11
2019-04-26T18:26:07.349Z,100531.20
2019-04-26T18:29:13.036Z,100531.87
2019-04-26T18:32:17.400Z,100529.63
2019-04-26T18:35:21.361Z,100537.73
2019-04-26T18:38:25.474Z,100531.45
2019-04-26T18:41:29.926Z,100537.66
2019-04-26T18:44:38.365Z,100542.95
2019-04-26T18:47:41.597Z,100539.02
2019-04-26T18:50:46.071Z,100546.66
2019-04-26T18:54:09.350Z,100544.12
2019-04-26T18:57:17.094Z,100546.09
2019-04-26T19:00:29.008Z,100550.91
2019-04-26T19:03:33.823Z,100554.78
2019-04-26T19:06:42.234Z,100553.70
2019-04-26T19:09:59.044Z,100554.25
2019-04-26T19:12:52.180Z,100555.37
2019-04-26T19:16:03.633Z,100557.33
2019-04-26T19:19:27.101Z,100555.14
2019-04-26T19:22:32.201Z,100553.59
2019-04-26T19:25:40.900Z,100553.00
2019-04-26T19:28:44.600Z,100554.03
2019-04-26T19:31:48.600Z,100552.70
2019-04-26T19:34:52.550Z,100555.76
2019-04-26T19:37:56.524Z,100548.28
2019-04-26T19:41:02.337Z,100553.11
2019-04-26T19:44:06.750Z,100558.10
2019-04-26T19:47:31.035Z,100559.70
2019-04-26T19:50:50.568Z,100560.02
2019-04-26T19:54:07.399Z,100555.59
2019-04-26T19:57:17.083Z,100559.05
2019-04-26T20:00:21.908Z,100557.73
2019-04-26T20:03:25.899Z,100558.64
2019-04-26T20:06:32.266Z,100561.53
2019-04-26T20:09:37.084Z,100559.86
2019-04-26T20:12:41.420Z,100561.94
2019-04-26T20:15:45.276Z,100563.27
2019-04-26T20:18:49.451Z,100567.74
2019-04-26T20:21:53.633Z,100570.90
2019-04-26T20:24:57.682Z,100570.62
2019-04-26T20:28:03.178Z,100567.36
2019-04-26T20:31:26.858Z,100569.64
2019-04-26T20:34:32.106Z,100569.23
2019-04-26T20:37:37.216Z,100574.98
2019-04-26T20:40:43.394Z,100580.36
2019-04-26T20:44:02.467Z,100579.50
2019-04-26T20:46:52.631Z,100582.69
2019-04-26T20:50:01.553Z,100579.63
2019-04-26T20:53:03.104Z,100581.59
2019-04-26T20:56:09.777Z,100590.56
2019-04-26T20:59:16.776Z,100585.38
2019-04-26T21:02:20.847Z,100583.64
2019-04-26T21:05:24.467Z,100587.28
2019-04-26T21:08:28.421Z,100593.57
2019-04-26T21:11:37.266Z,100580.25
2019-04-26T21:14:44.308Z,100581.62
2019-04-26T21:17:43.452Z,100579.34
2019-04-26T21:20:47.355Z,100583.76
2019-04-26T21:23:51.935Z,100575.92
2019-04-26T21:27:15.221Z,100578.87
2019-04-26T21:30:34.739Z,100584.24
2019-04-26T21:33:42.991Z,100586.14
2019-04-26T21:37:21.856Z,100589.89
2019-04-26T21:40:30.160Z,100587.88
2019-04-26T21:43:38.194Z,100583.78
2019-04-26T21:46:40.596Z,100576.90
2019-04-26T21:49:44.780Z,100582.06
2019-04-26T21:52:48.586Z,100584.37
2019-04-26T21:55:52.406Z,100590.84
2019-04-26T21:58:56.799Z,100593.44
2019-04-26T22:02:00.681Z,100592.00
2019-04-26T22:05:08.027Z,100591.16
2019-04-26T22:08:10.815Z,100589.94
2019-04-26T22:11:19.802Z,100594.78
2019-04-26T22:14:23.847Z,100598.01
2019-04-26T22:17:40.635Z,100595.95
2019-04-26T22:20:54.558Z,100599.86
2019-04-26T22:24:05.942Z,100609.11
2019-04-26T22:27:10.553Z,100611.27
2019-04-26T22:30:22.678Z,100616.00
2019-04-26T22:33:27.416Z,100613.72
2019-04-26T22:36:35.595Z,100616.32
2019-04-26T22:39:39.778Z,100618.55
2019-04-26T22:42:46.813Z,100616.36
2019-04-26T22:45:54.913Z,100621.78
2019-04-26T22:49:01.376Z,100625.41
2019-04-26T22:52:06.360Z,100620.63
2019-04-26T22:55:15.844Z,100620.16
2019-04-26T22:58:20.560Z,100623.02
2019-04-26T23:01:22.749Z,100615.71
2019-04-26T23:04:27.576Z,100611.39
2019-04-26T23:07:33.144Z,100611.84
2019-04-26T23:10:45.958Z,100610.84
2019-04-26T23:14:11.594Z,100613.98
2019-04-26T23:17:27.110Z,100610.75
2019-04-26T23:20:43.048Z,100612.16
2019-04-26T23:23:47.007Z,100613.84
2019-04-26T23:26:50.854Z,100606.79
2019-04-26T23:29:58.283Z,100609.84
2019-04-26T23:33:00.897Z,100606.79
2019-04-26T23:36:05.004Z,100606.27
2019-04-26T23:39:12.080Z,100602.79
2019-04-26T23:42:16.444Z,100603.37
2019-04-26T23:45:20.888Z,100602.91
2019-04-26T23:48:24.681Z,100605.72
2019-04-26T23:51:28.844Z,100601.34
2019-04-26T23:54:35.907Z,100598.86
2019-04-26T23:57:38.423Z,100597.95
